sensor_id;sensor_type;location;lat;lon;timestamp;temperature;humidity
45868;DHT22;31582;45.490;7.860;2022-09-09T00:04:27;21.10;64.70
45868;DHT22;31582;45.490;7.860;2022-09-09T00:12:25;21.00;64.50
45868;DHT22;31582;45.490;7.860;2022-09-09T00:14:59;21.00;64.00
45868;DHT22;31582;45.490;7.860;2022-09-09T00:20:05;21.00;64.30
45868;DHT22;31582;45.490;7.860;2022-09-09T00:22:37;20.90;64.50
45868;DHT22;31582;45.490;7.860;2022-09-09T00:28:13;20.80;63.90
45868;DHT22;31582;45.490;7.860;2022-09-09T00:30:43;20.80;63.40
45868;DHT22;31582;45.490;7.860;2022-09-09T00:33:15;20.80;62.80
45868;DHT22;31582;45.490;7.860;2022-09-09T00:35:44;20.70;63.20
45868;DHT22;31582;45.490;7.860;2022-09-09T00:38:55;20.70;63.90
45868;DHT22;31582;45.490;7.860;2022-09-09T00:44:00;20.60;64.10
45868;DHT22;31582;45.490;7.860;2022-09-09T00:46:41;20.50;64.30
45868;DHT22;31582;45.490;7.860;2022-09-09T00:52:22;20.40;64.80
45868;DHT22;31582;45.490;7.860;2022-09-09T00:57:29;20.20;65.00
45868;DHT22;31582;45.490;7.860;2022-09-09T00:59:59;20.20;65.00
45868;DHT22;31582;45.490;7.860;2022-09-09T01:02:41;20.10;65.00
45868;DHT22;31582;45.490;7.860;2022-09-09T01:05:30;20.10;64.90
45868;DHT22;31582;45.490;7.860;2022-09-09T01:08:03;20.00;64.60
45868;DHT22;31582;45.490;7.860;2022-09-09T01:10:51;20.00;64.40
45868;DHT22;31582;45.490;7.860;2022-09-09T01:13:24;19.90;64.30
45868;DHT22;31582;45.490;7.860;2022-09-09T01:15:51;20.00;63.20
45868;DHT22;31582;45.490;7.860;2022-09-09T01:18:28;20.00;63.20
45868;DHT22;31582;45.490;7.860;2022-09-09T01:21:04;20.00;62.90
45868;DHT22;31582;45.490;7.860;2022-09-09T01:23:41;20.00;63.20
45868;DHT22;31582;45.490;7.860;2022-09-09T01:26:23;20.00;63.00
45868;DHT22;31582;45.490;7.860;2022-09-09T01:28:52;20.00;62.30
45868;DHT22;31582;45.490;7.860;2022-09-09T01:31:20;20.00;61.80
45868;DHT22;31582;45.490;7.860;2022-09-09T01:33:48;20.00;64.00
45868;DHT22;31582;45.490;7.860;2022-09-09T01:36:18;20.00;65.10
45868;DHT22;31582;45.490;7.860;2022-09-09T01:38:46;20.00;71.00
45868;DHT22;31582;45.490;7.860;2022-09-09T01:41:13;20.00;74.20
45868;DHT22;31582;45.490;7.860;2022-09-09T01:43:39;20.00;71.60
45868;DHT22;31582;45.490;7.860;2022-09-09T01:46:06;20.00;68.50
45868;DHT22;31582;45.490;7.860;2022-09-09T01:48:34;20.00;65.10
45868;DHT22;31582;45.490;7.860;2022-09-09T01:51:01;20.00;62.40
45868;DHT22;31582;45.490;7.860;2022-09-09T01:53:27;20.00;62.50
45868;DHT22;31582;45.490;7.860;2022-09-09T01:55:56;20.00;64.30
45868;DHT22;31582;45.490;7.860;2022-09-09T01:58:33;19.90;66.10
45868;DHT22;31582;45.490;7.860;2022-09-09T02:03:59;19.80;66.80
45868;DHT22;31582;45.490;7.860;2022-09-09T02:06:34;19.70;64.00
45868;DHT22;31582;45.490;7.860;2022-09-09T02:09:02;19.70;61.30
45868;DHT22;31582;45.490;7.860;2022-09-09T02:11:30;19.70;60.80
45868;DHT22;31582;45.490;7.860;2022-09-09T02:14:00;19.70;60.40
45868;DHT22;31582;45.490;7.860;2022-09-09T02:16:30;19.70;60.00
45868;DHT22;31582;45.490;7.860;2022-09-09T02:19:11;19.80;60.10
45868;DHT22;31582;45.490;7.860;2022-09-09T02:21:40;19.80;60.50
45868;DHT22;31582;45.490;7.860;2022-09-09T02:24:08;19.80;60.90
45868;DHT22;31582;45.490;7.860;2022-09-09T02:26:40;19.80;61.10
45868;DHT22;31582;45.490;7.860;2022-09-09T02:29:41;19.70;61.40
45868;DHT22;31582;45.490;7.860;2022-09-09T02:32:01;19.60;62.50
45868;DHT22;31582;45.490;7.860;2022-09-09T02:34:30;19.50;63.10
45868;DHT22;31582;45.490;7.860;2022-09-09T02:36:58;19.50;64.00
45868;DHT22;31582;45.490;7.860;2022-09-09T02:39:26;19.40;65.80
45868;DHT22;31582;45.490;7.860;2022-09-09T02:41:52;19.10;65.90
45868;DHT22;31582;45.490;7.860;2022-09-09T02:44:19;19.00;66.40
45868;DHT22;31582;45.490;7.860;2022-09-09T02:49:25;18.70;71.00
45868;DHT22;31582;45.490;7.860;2022-09-09T02:54:28;18.40;72.70
45868;DHT22;31582;45.490;7.860;2022-09-09T02:57:00;18.30;74.10
45868;DHT22;31582;45.490;7.860;2022-09-09T02:59:28;18.20;74.60
45868;DHT22;31582;45.490;7.860;2022-09-09T03:01:56;18.20;74.10
45868;DHT22;31582;45.490;7.860;2022-09-09T03:04:23;18.20;74.00
45868;DHT22;31582;45.490;7.860;2022-09-09T03:06:51;18.20;74.40
45868;DHT22;31582;45.490;7.860;2022-09-09T03:09:18;18.20;75.60
45868;DHT22;31582;45.490;7.860;2022-09-09T03:11:44;18.10;78.20
45868;DHT22;31582;45.490;7.860;2022-09-09T03:14:11;18.10;78.30
45868;DHT22;31582;45.490;7.860;2022-09-09T03:16:38;18.00;78.70
45868;DHT22;31582;45.490;7.860;2022-09-09T03:19:05;17.90;80.80
45868;DHT22;31582;45.490;7.860;2022-09-09T03:21:32;17.70;80.70
45868;DHT22;31582;45.490;7.860;2022-09-09T03:23:59;17.70;79.70
45868;DHT22;31582;45.490;7.860;2022-09-09T03:26:26;17.70;79.30
45868;DHT22;31582;45.490;7.860;2022-09-09T03:28:53;17.60;80.30
45868;DHT22;31582;45.490;7.860;2022-09-09T03:31:19;17.60;79.80
45868;DHT22;31582;45.490;7.860;2022-09-09T03:33:46;17.60;79.10
45868;DHT22;31582;45.490;7.860;2022-09-09T03:36:14;17.50;81.70
45868;DHT22;31582;45.490;7.860;2022-09-09T03:38:41;17.50;80.70
45868;DHT22;31582;45.490;7.860;2022-09-09T03:41:08;17.50;80.80
45868;DHT22;31582;45.490;7.860;2022-09-09T03:43:35;17.50;82.10
45868;DHT22;31582;45.490;7.860;2022-09-09T03:46:02;17.40;83.10
45868;DHT22;31582;45.490;7.860;2022-09-09T03:48:29;17.30;82.60
45868;DHT22;31582;45.490;7.860;2022-09-09T03:50:56;17.30;83.00
45868;DHT22;31582;45.490;7.860;2022-09-09T03:53:24;17.30;83.10
45868;DHT22;31582;45.490;7.860;2022-09-09T03:55:52;17.20;84.80
45868;DHT22;31582;45.490;7.860;2022-09-09T03:58:21;17.20;86.10
45868;DHT22;31582;45.490;7.860;2022-09-09T04:00:58;17.10;85.50
45868;DHT22;31582;45.490;7.860;2022-09-09T04:03:25;17.10;85.00
45868;DHT22;31582;45.490;7.860;2022-09-09T04:05:54;17.00;85.00
45868;DHT22;31582;45.490;7.860;2022-09-09T04:08:21;17.00;86.20
45868;DHT22;31582;45.490;7.860;2022-09-09T04:10:49;16.70;87.00
45868;DHT22;31582;45.490;7.860;2022-09-09T04:13:16;16.60;88.30
45868;DHT22;31582;45.490;7.860;2022-09-09T04:15:44;16.50;89.70
45868;DHT22;31582;45.490;7.860;2022-09-09T04:18:16;16.40;90.00
45868;DHT22;31582;45.490;7.860;2022-09-09T04:20:46;16.50;89.90
45868;DHT22;31582;45.490;7.860;2022-09-09T04:23:13;16.40;90.70
45868;DHT22;31582;45.490;7.860;2022-09-09T04:25:44;16.30;91.50
45868;DHT22;31582;45.490;7.860;2022-09-09T04:28:11;16.40;90.80
45868;DHT22;31582;45.490;7.860;2022-09-09T04:30:37;16.40;90.80
45868;DHT22;31582;45.490;7.860;2022-09-09T04:33:06;16.40;90.80
45868;DHT22;31582;45.490;7.860;2022-09-09T04:35:33;16.30;90.80
45868;DHT22;31582;45.490;7.860;2022-09-09T04:38:00;16.30;90.90
45868;DHT22;31582;45.490;7.860;2022-09-09T04:40:29;16.30;91.10
45868;DHT22;31582;45.490;7.860;2022-09-09T04:42:59;16.00;91.60
45868;DHT22;31582;45.490;7.860;2022-09-09T04:45:26;15.80;93.20
45868;DHT22;31582;45.490;7.860;2022-09-09T04:47:53;15.90;92.80
45868;DHT22;31582;45.490;7.860;2022-09-09T04:50:20;15.80;92.70
45868;DHT22;31582;45.490;7.860;2022-09-09T04:52:47;15.90;92.50
45868;DHT22;31582;45.490;7.860;2022-09-09T04:55:14;16.00;92.90
45868;DHT22;31582;45.490;7.860;2022-09-09T04:57:41;16.00;92.70
45868;DHT22;31582;45.490;7.860;2022-09-09T05:00:08;16.00;92.60
45868;DHT22;31582;45.490;7.860;2022-09-09T05:02:38;15.90;94.20
45868;DHT22;31582;45.490;7.860;2022-09-09T05:05:05;15.70;94.80
45868;DHT22;31582;45.490;7.860;2022-09-09T05:07:32;15.70;94.50
45868;DHT22;31582;45.490;7.860;2022-09-09T05:09:59;15.80;94.10
45868;DHT22;31582;45.490;7.860;2022-09-09T05:12:26;15.90;94.40
45868;DHT22;31582;45.490;7.860;2022-09-09T05:14:53;15.80;95.00
45868;DHT22;31582;45.490;7.860;2022-09-09T05:17:19;15.80;95.20
45868;DHT22;31582;45.490;7.860;2022-09-09T05:19:49;15.90;94.10
45868;DHT22;31582;45.490;7.860;2022-09-09T05:22:22;15.90;93.80
45868;DHT22;31582;45.490;7.860;2022-09-09T05:24:49;16.00;93.50
45868;DHT22;31582;45.490;7.860;2022-09-09T05:27:19;16.10;94.00
45868;DHT22;31582;45.490;7.860;2022-09-09T05:29:49;16.10;93.50
45868;DHT22;31582;45.490;7.860;2022-09-09T05:32:15;16.20;93.20
45868;DHT22;31582;45.490;7.860;2022-09-09T05:34:43;16.20;92.90
45868;DHT22;31582;45.490;7.860;2022-09-09T05:37:10;16.20;92.80
45868;DHT22;31582;45.490;7.860;2022-09-09T05:39:37;16.20;92.70
45868;DHT22;31582;45.490;7.860;2022-09-09T05:42:04;16.20;92.60
45868;DHT22;31582;45.490;7.860;2022-09-09T05:44:31;16.10;93.10
45868;DHT22;31582;45.490;7.860;2022-09-09T05:46:58;16.20;92.80
45868;DHT22;31582;45.490;7.860;2022-09-09T05:49:25;16.20;93.20
45868;DHT22;31582;45.490;7.860;2022-09-09T05:51:52;16.20;93.20
45868;DHT22;31582;45.490;7.860;2022-09-09T05:54:19;16.20;93.10
45868;DHT22;31582;45.490;7.860;2022-09-09T05:56:48;16.10;92.80
45868;DHT22;31582;45.490;7.860;2022-09-09T05:59:17;16.20;92.80
45868;DHT22;31582;45.490;7.860;2022-09-09T06:01:44;16.20;92.80
45868;DHT22;31582;45.490;7.860;2022-09-09T06:04:12;16.20;92.80
45868;DHT22;31582;45.490;7.860;2022-09-09T06:06:38;16.20;93.00
45868;DHT22;31582;45.490;7.860;2022-09-09T06:09:07;16.30;93.00
45868;DHT22;31582;45.490;7.860;2022-09-09T06:11:37;16.40;93.30
45868;DHT22;31582;45.490;7.860;2022-09-09T06:14:04;16.30;93.30
45868;DHT22;31582;45.490;7.860;2022-09-09T06:16:31;16.40;93.20
45868;DHT22;31582;45.490;7.860;2022-09-09T06:19:01;16.40;93.30
45868;DHT22;31582;45.490;7.860;2022-09-09T06:21:33;16.50;93.00
45868;DHT22;31582;45.490;7.860;2022-09-09T06:24:00;16.50;93.50
45868;DHT22;31582;45.490;7.860;2022-09-09T06:26:37;16.60;93.50
45868;DHT22;31582;45.490;7.860;2022-09-09T06:29:10;16.60;93.60
45868;DHT22;31582;45.490;7.860;2022-09-09T06:31:37;16.80;93.50
45868;DHT22;31582;45.490;7.860;2022-09-09T06:34:06;16.90;93.10
45868;DHT22;31582;45.490;7.860;2022-09-09T06:36:34;17.00;92.90
45868;DHT22;31582;45.490;7.860;2022-09-09T06:39:02;17.10;92.30
45868;DHT22;31582;45.490;7.860;2022-09-09T06:41:29;17.20;91.30
45868;DHT22;31582;45.490;7.860;2022-09-09T06:43:56;17.30;90.80
45868;DHT22;31582;45.490;7.860;2022-09-09T06:46:24;17.50;90.20
45868;DHT22;31582;45.490;7.860;2022-09-09T06:48:54;17.60;89.40
45868;DHT22;31582;45.490;7.860;2022-09-09T06:51:23;17.80;88.50
45868;DHT22;31582;45.490;7.860;2022-09-09T06:53:50;17.90;87.50
45868;DHT22;31582;45.490;7.860;2022-09-09T06:58:44;18.20;82.70
45868;DHT22;31582;45.490;7.860;2022-09-09T07:01:15;18.30;80.50
45868;DHT22;31582;45.490;7.860;2022-09-09T07:03:44;18.60;81.30
45868;DHT22;31582;45.490;7.860;2022-09-09T07:06:15;18.90;78.90
45868;DHT22;31582;45.490;7.860;2022-09-09T07:08:43;19.20;78.00
45868;DHT22;31582;45.490;7.860;2022-09-09T07:11:22;19.30;77.10
45868;DHT22;31582;45.490;7.860;2022-09-09T07:13:49;19.40;75.40
45868;DHT22;31582;45.490;7.860;2022-09-09T07:16:17;19.50;74.60
45868;DHT22;31582;45.490;7.860;2022-09-09T07:18:44;19.60;69.80
45868;DHT22;31582;45.490;7.860;2022-09-09T07:21:11;19.70;66.90
45868;DHT22;31582;45.490;7.860;2022-09-09T07:23:38;19.90;66.30
45868;DHT22;31582;45.490;7.860;2022-09-09T07:26:09;20.00;64.70
45868;DHT22;31582;45.490;7.860;2022-09-09T07:28:37;20.10;63.30
45868;DHT22;31582;45.490;7.860;2022-09-09T07:31:04;20.20;62.40
45868;DHT22;31582;45.490;7.860;2022-09-09T07:33:32;20.30;60.60
45868;DHT22;31582;45.490;7.860;2022-09-09T07:36:06;20.50;60.90
45868;DHT22;31582;45.490;7.860;2022-09-09T07:38:40;20.70;60.50
45868;DHT22;31582;45.490;7.860;2022-09-09T07:41:07;20.80;61.50
45868;DHT22;31582;45.490;7.860;2022-09-09T07:43:39;20.90;61.50
45868;DHT22;31582;45.490;7.860;2022-09-09T07:46:06;21.00;62.90
45868;DHT22;31582;45.490;7.860;2022-09-09T07:48:33;20.90;60.80
45868;DHT22;31582;45.490;7.860;2022-09-09T07:51:08;21.00;61.70
45868;DHT22;31582;45.490;7.860;2022-09-09T07:53:35;21.10;62.20
45868;DHT22;31582;45.490;7.860;2022-09-09T07:56:03;21.30;63.10
45868;DHT22;31582;45.490;7.860;2022-09-09T07:58:30;21.50;65.30
45868;DHT22;31582;45.490;7.860;2022-09-09T08:01:10;21.70;68.90
45868;DHT22;31582;45.490;7.860;2022-09-09T08:03:37;21.90;68.90
45868;DHT22;31582;45.490;7.860;2022-09-09T08:06:05;22.00;64.30
45868;DHT22;31582;45.490;7.860;2022-09-09T08:08:33;22.30;57.70
45868;DHT22;31582;45.490;7.860;2022-09-09T08:11:11;22.50;55.00
45868;DHT22;31582;45.490;7.860;2022-09-09T08:13:38;22.60;56.80
45868;DHT22;31582;45.490;7.860;2022-09-09T08:16:06;22.80;53.60
45868;DHT22;31582;45.490;7.860;2022-09-09T08:18:33;22.90;60.00
45868;DHT22;31582;45.490;7.860;2022-09-09T08:21:13;23.00;63.00
45868;DHT22;31582;45.490;7.860;2022-09-09T08:23:40;23.20;67.40
45868;DHT22;31582;45.490;7.860;2022-09-09T08:26:13;23.40;68.10
45868;DHT22;31582;45.490;7.860;2022-09-09T08:28:42;23.60;67.70
45868;DHT22;31582;45.490;7.860;2022-09-09T08:31:15;23.60;68.40
45868;DHT22;31582;45.490;7.860;2022-09-09T08:33:43;23.60;67.90
45868;DHT22;31582;45.490;7.860;2022-09-09T08:36:18;23.70;67.70
45868;DHT22;31582;45.490;7.860;2022-09-09T08:38:48;23.90;68.50
45868;DHT22;31582;45.490;7.860;2022-09-09T08:52:31;23.20;72.50
45868;DHT22;31582;45.490;7.860;2022-09-09T08:55:20;23.40;72.50
45868;DHT22;31582;45.490;7.860;2022-09-09T08:57:53;23.70;71.30
45868;DHT22;31582;45.490;7.860;2022-09-09T09:00:21;23.90;69.30
45868;DHT22;31582;45.490;7.860;2022-09-09T09:03:14;23.90;69.50
45868;DHT22;31582;45.490;7.860;2022-09-09T09:05:51;24.10;71.80
45868;DHT22;31582;45.490;7.860;2022-09-09T09:08:25;24.50;68.70
45868;DHT22;31582;45.490;7.860;2022-09-09T09:10:54;24.80;67.50
45868;DHT22;31582;45.490;7.860;2022-09-09T09:13:40;24.60;66.30
45868;DHT22;31582;45.490;7.860;2022-09-09T09:18:50;24.40;67.70
45868;DHT22;31582;45.490;7.860;2022-09-09T09:21:43;24.70;69.20
45868;DHT22;31582;45.490;7.860;2022-09-09T09:24:27;24.50;67.60
45868;DHT22;31582;45.490;7.860;2022-09-09T09:27:12;24.40;68.30
45868;DHT22;31582;45.490;7.860;2022-09-09T09:29:40;24.50;68.30
45868;DHT22;31582;45.490;7.860;2022-09-09T09:32:33;24.60;68.80
45868;DHT22;31582;45.490;7.860;2022-09-09T09:35:02;24.90;66.50
45868;DHT22;31582;45.490;7.860;2022-09-09T09:37:34;25.00;65.30
45868;DHT22;31582;45.490;7.860;2022-09-09T09:40:28;24.60;65.90
45868;DHT22;31582;45.490;7.860;2022-09-09T09:42:58;24.60;66.30
45868;DHT22;31582;45.490;7.860;2022-09-09T09:45:34;24.50;66.80
45868;DHT22;31582;45.490;7.860;2022-09-09T09:48:04;24.50;66.20
45868;DHT22;31582;45.490;7.860;2022-09-09T09:50:33;24.70;66.70
45868;DHT22;31582;45.490;7.860;2022-09-09T09:53:04;24.90;66.60
45868;DHT22;31582;45.490;7.860;2022-09-09T09:55:33;24.90;65.90
45868;DHT22;31582;45.490;7.860;2022-09-09T09:58:06;25.00;63.50
45868;DHT22;31582;45.490;7.860;2022-09-09T10:00:33;25.10;65.20
45868;DHT22;31582;45.490;7.860;2022-09-09T10:03:26;25.40;64.80
45868;DHT22;31582;45.490;7.860;2022-09-09T10:05:54;25.60;61.90
45868;DHT22;31582;45.490;7.860;2022-09-09T10:08:25;25.60;62.70
45868;DHT22;31582;45.490;7.860;2022-09-09T10:11:03;25.70;60.10
45868;DHT22;31582;45.490;7.860;2022-09-09T10:19:33;26.00;61.60
45868;DHT22;31582;45.490;7.860;2022-09-09T10:22:25;26.20;59.50
45868;DHT22;31582;45.490;7.860;2022-09-09T10:28:16;25.90;61.70
45868;DHT22;31582;45.490;7.860;2022-09-09T10:31:29;25.50;60.60
45868;DHT22;31582;45.490;7.860;2022-09-09T10:37:33;26.00;61.00
45868;DHT22;31582;45.490;7.860;2022-09-09T10:40:06;26.00;60.10
45868;DHT22;31582;45.490;7.860;2022-09-09T10:42:41;26.20;59.80
45868;DHT22;31582;45.490;7.860;2022-09-09T10:50:54;26.20;59.30
45868;DHT22;31582;45.490;7.860;2022-09-09T10:56:15;26.20;59.30
45868;DHT22;31582;45.490;7.860;2022-09-09T11:01:34;26.50;58.30
45868;DHT22;31582;45.490;7.860;2022-09-09T11:04:25;26.80;57.60
45868;DHT22;31582;45.490;7.860;2022-09-09T11:06:55;27.00;55.90
45868;DHT22;31582;45.490;7.860;2022-09-09T11:09:27;27.00;54.90
45868;DHT22;31582;45.490;7.860;2022-09-09T11:11:56;27.00;53.90
45868;DHT22;31582;45.490;7.860;2022-09-09T11:14:37;26.80;54.00
45868;DHT22;31582;45.490;7.860;2022-09-09T11:17:12;26.60;54.70
45868;DHT22;31582;45.490;7.860;2022-09-09T11:19:42;26.60;55.10
45868;DHT22;31582;45.490;7.860;2022-09-09T11:22:33;26.50;55.40
45868;DHT22;31582;45.490;7.860;2022-09-09T11:31:05;26.70;57.10
45868;DHT22;31582;45.490;7.860;2022-09-09T11:34:03;27.00;56.10
45868;DHT22;31582;45.490;7.860;2022-09-09T11:44:41;27.80;55.00
45868;DHT22;31582;45.490;7.860;2022-09-09T11:47:22;27.70;54.40
45868;DHT22;31582;45.490;7.860;2022-09-09T11:49:51;27.70;55.10
45868;DHT22;31582;45.490;7.860;2022-09-09T11:52:34;27.70;54.30
45868;DHT22;31582;45.490;7.860;2022-09-09T11:55:12;27.90;53.40
45868;DHT22;31582;45.490;7.860;2022-09-09T11:58:01;27.90;51.90
45868;DHT22;31582;45.490;7.860;2022-09-09T12:00:35;28.00;50.80
45868;DHT22;31582;45.490;7.860;2022-09-09T12:03:36;28.20;51.60
45868;DHT22;31582;45.490;7.860;2022-09-09T12:06:19;28.20;50.50
45868;DHT22;31582;45.490;7.860;2022-09-09T12:08:55;27.70;51.20
45868;DHT22;31582;45.490;7.860;2022-09-09T12:11:26;27.70;49.70
45868;DHT22;31582;45.490;7.860;2022-09-09T12:14:00;28.30;50.50
45868;DHT22;31582;45.490;7.860;2022-09-09T12:16:35;28.70;50.40
45868;DHT22;31582;45.490;7.860;2022-09-09T12:19:30;28.60;48.90
45868;DHT22;31582;45.490;7.860;2022-09-09T12:28:14;28.80;49.80
45868;DHT22;31582;45.490;7.860;2022-09-09T12:30:58;28.90;49.10
45868;DHT22;31582;45.490;7.860;2022-09-09T12:33:36;28.50;50.30
45868;DHT22;31582;45.490;7.860;2022-09-09T12:36:05;27.70;50.40
45868;DHT22;31582;45.490;7.860;2022-09-09T12:38:40;27.20;51.50
45868;DHT22;31582;45.490;7.860;2022-09-09T12:41:24;27.10;52.10
45868;DHT22;31582;45.490;7.860;2022-09-09T12:44:08;27.30;53.30
45868;DHT22;31582;45.490;7.860;2022-09-09T12:46:43;27.00;50.50
45868;DHT22;31582;45.490;7.860;2022-09-09T12:49:27;27.20;53.00
45868;DHT22;31582;45.490;7.860;2022-09-09T12:51:55;27.30;52.90
45868;DHT22;31582;45.490;7.860;2022-09-09T12:54:23;27.50;49.90
45868;DHT22;31582;45.490;7.860;2022-09-09T12:56:50;27.40;51.40
45868;DHT22;31582;45.490;7.860;2022-09-09T12:59:26;27.70;52.30
45868;DHT22;31582;45.490;7.860;2022-09-09T13:01:57;28.20;51.70
45868;DHT22;31582;45.490;7.860;2022-09-09T13:04:25;28.40;50.20
45868;DHT22;31582;45.490;7.860;2022-09-09T13:06:52;28.30;49.20
45868;DHT22;31582;45.490;7.860;2022-09-09T13:09:19;28.60;50.90
45868;DHT22;31582;45.490;7.860;2022-09-09T13:11:49;28.70;50.40
45868;DHT22;31582;45.490;7.860;2022-09-09T13:14:38;28.30;48.60
45868;DHT22;31582;45.490;7.860;2022-09-09T13:17:06;28.40;49.90
45868;DHT22;31582;45.490;7.860;2022-09-09T13:19:37;28.40;49.70
45868;DHT22;31582;45.490;7.860;2022-09-09T13:22:30;28.50;48.40
45868;DHT22;31582;45.490;7.860;2022-09-09T13:27:40;28.60;48.50
45868;DHT22;31582;45.490;7.860;2022-09-09T13:30:33;28.80;48.30
45868;DHT22;31582;45.490;7.860;2022-09-09T13:35:51;28.90;46.90
45868;DHT22;31582;45.490;7.860;2022-09-09T13:38:20;28.70;47.10
45868;DHT22;31582;45.490;7.860;2022-09-09T13:43:23;28.50;49.00
45868;DHT22;31582;45.490;7.860;2022-09-09T13:46:04;28.20;48.80
45868;DHT22;31582;45.490;7.860;2022-09-09T13:48:31;28.20;48.80
45868;DHT22;31582;45.490;7.860;2022-09-09T13:51:03;28.30;50.80
45868;DHT22;31582;45.490;7.860;2022-09-09T13:53:31;28.00;48.70
45868;DHT22;31582;45.490;7.860;2022-09-09T13:55:59;28.30;49.20
45868;DHT22;31582;45.490;7.860;2022-09-09T13:58:26;28.40;48.80
45868;DHT22;31582;45.490;7.860;2022-09-09T14:00:53;28.60;49.10
45868;DHT22;31582;45.490;7.860;2022-09-09T14:03:20;28.80;48.20
45868;DHT22;31582;45.490;7.860;2022-09-09T14:05:48;28.50;48.30
45868;DHT22;31582;45.490;7.860;2022-09-09T14:08:23;28.60;48.00
45868;DHT22;31582;45.490;7.860;2022-09-09T14:10:50;28.80;47.80
45868;DHT22;31582;45.490;7.860;2022-09-09T14:13:18;29.20;47.90
45868;DHT22;31582;45.490;7.860;2022-09-09T14:15:47;29.60;47.90
45868;DHT22;31582;45.490;7.860;2022-09-09T14:18:14;29.70;45.20
45868;DHT22;31582;45.490;7.860;2022-09-09T14:20:41;29.60;45.70
45868;DHT22;31582;45.490;7.860;2022-09-09T14:23:10;29.40;45.40
45868;DHT22;31582;45.490;7.860;2022-09-09T14:25:40;29.20;45.40
45868;DHT22;31582;45.490;7.860;2022-09-09T14:28:09;29.30;46.20
45868;DHT22;31582;45.490;7.860;2022-09-09T14:30:38;29.50;46.10
45868;DHT22;31582;45.490;7.860;2022-09-09T14:33:07;29.80;45.20
45868;DHT22;31582;45.490;7.860;2022-09-09T14:35:35;30.00;45.00
45868;DHT22;31582;45.490;7.860;2022-09-09T14:38:03;30.30;45.00
45868;DHT22;31582;45.490;7.860;2022-09-09T14:40:31;30.50;45.00
45868;DHT22;31582;45.490;7.860;2022-09-09T14:42:58;30.10;44.20
45868;DHT22;31582;45.490;7.860;2022-09-09T14:45:26;30.00;44.30
45868;DHT22;31582;45.490;7.860;2022-09-09T14:47:52;30.20;44.80
45868;DHT22;31582;45.490;7.860;2022-09-09T14:50:21;30.60;44.60
45868;DHT22;31582;45.490;7.860;2022-09-09T14:52:48;30.40;42.70
45868;DHT22;31582;45.490;7.860;2022-09-09T14:55:16;30.20;43.50
45868;DHT22;31582;45.490;7.860;2022-09-09T14:57:43;29.70;44.80
45868;DHT22;31582;45.490;7.860;2022-09-09T15:00:10;29.50;44.80
45868;DHT22;31582;45.490;7.860;2022-09-09T15:02:39;29.50;45.20
45868;DHT22;31582;45.490;7.860;2022-09-09T15:05:07;29.30;45.00
45868;DHT22;31582;45.490;7.860;2022-09-09T15:07:34;29.30;46.70
45868;DHT22;31582;45.490;7.860;2022-09-09T15:10:01;28.90;45.50
45868;DHT22;31582;45.490;7.860;2022-09-09T15:12:28;29.20;46.20
45868;DHT22;31582;45.490;7.860;2022-09-09T15:14:55;29.60;45.10
45868;DHT22;31582;45.490;7.860;2022-09-09T15:17:25;29.60;43.10
45868;DHT22;31582;45.490;7.860;2022-09-09T15:19:53;29.60;43.70
45868;DHT22;31582;45.490;7.860;2022-09-09T15:22:21;29.80;43.30
45868;DHT22;31582;45.490;7.860;2022-09-09T15:24:48;30.10;42.80
45868;DHT22;31582;45.490;7.860;2022-09-09T15:27:15;30.30;42.80
45868;DHT22;31582;45.490;7.860;2022-09-09T15:29:42;30.60;43.10
45868;DHT22;31582;45.490;7.860;2022-09-09T15:32:10;30.80;42.20
45868;DHT22;31582;45.490;7.860;2022-09-09T15:34:37;30.40;41.50
45868;DHT22;31582;45.490;7.860;2022-09-09T15:37:04;29.40;43.60
45868;DHT22;31582;45.490;7.860;2022-09-09T15:39:32;29.20;44.40
45868;DHT22;31582;45.490;7.860;2022-09-09T15:42:04;29.40;43.00
45868;DHT22;31582;45.490;7.860;2022-09-09T15:44:38;29.70;42.50
45868;DHT22;31582;45.490;7.860;2022-09-09T15:47:05;29.90;42.20
45868;DHT22;31582;45.490;7.860;2022-09-09T15:49:32;29.80;42.70
45868;DHT22;31582;45.490;7.860;2022-09-09T15:52:00;29.70;42.70
45868;DHT22;31582;45.490;7.860;2022-09-09T15:54:35;29.90;42.80
45868;DHT22;31582;45.490;7.860;2022-09-09T15:57:07;30.20;42.90
45868;DHT22;31582;45.490;7.860;2022-09-09T15:59:35;30.50;41.90
45868;DHT22;31582;45.490;7.860;2022-09-09T16:02:02;30.70;40.40
45868;DHT22;31582;45.490;7.860;2022-09-09T16:04:29;30.80;40.50
45868;DHT22;31582;45.490;7.860;2022-09-09T16:06:59;31.00;39.50
45868;DHT22;31582;45.490;7.860;2022-09-09T16:09:27;30.90;39.70
45868;DHT22;31582;45.490;7.860;2022-09-09T16:12:01;30.80;39.40
45868;DHT22;31582;45.490;7.860;2022-09-09T16:14:29;30.90;40.50
45868;DHT22;31582;45.490;7.860;2022-09-09T16:17:00;30.90;40.90
45868;DHT22;31582;45.490;7.860;2022-09-09T16:19:27;30.60;40.80
45868;DHT22;31582;45.490;7.860;2022-09-09T16:21:54;30.70;40.50
45868;DHT22;31582;45.490;7.860;2022-09-09T16:24:21;30.80;40.50
45868;DHT22;31582;45.490;7.860;2022-09-09T16:26:50;30.80;39.80
45868;DHT22;31582;45.490;7.860;2022-09-09T16:29:18;30.80;39.50
45868;DHT22;31582;45.490;7.860;2022-09-09T16:31:46;30.70;39.90
45868;DHT22;31582;45.490;7.860;2022-09-09T16:34:14;30.60;41.00
45868;DHT22;31582;45.490;7.860;2022-09-09T16:36:43;30.30;39.50
45868;DHT22;31582;45.490;7.860;2022-09-09T16:39:13;30.00;40.70
45868;DHT22;31582;45.490;7.860;2022-09-09T16:41:42;30.00;41.10
45868;DHT22;31582;45.490;7.860;2022-09-09T16:44:11;30.10;41.20
45868;DHT22;31582;45.490;7.860;2022-09-09T16:46:40;30.10;42.30
45868;DHT22;31582;45.490;7.860;2022-09-09T16:49:10;30.10;40.90
45868;DHT22;31582;45.490;7.860;2022-09-09T16:51:38;29.80;40.40
45868;DHT22;31582;45.490;7.860;2022-09-09T16:54:06;29.70;41.90
45868;DHT22;31582;45.490;7.860;2022-09-09T16:56:34;29.50;42.80
45868;DHT22;31582;45.490;7.860;2022-09-09T16:59:04;29.30;44.20
45868;DHT22;31582;45.490;7.860;2022-09-09T17:01:35;29.20;45.10
45868;DHT22;31582;45.490;7.860;2022-09-09T17:04:05;29.10;45.70
45868;DHT22;31582;45.490;7.860;2022-09-09T17:06:32;29.00;47.40
45868;DHT22;31582;45.490;7.860;2022-09-09T17:09:10;29.00;47.50
45868;DHT22;31582;45.490;7.860;2022-09-09T17:11:37;28.90;47.70
45868;DHT22;31582;45.490;7.860;2022-09-09T17:14:05;28.60;48.50
45868;DHT22;31582;45.490;7.860;2022-09-09T17:16:32;28.20;50.10
45868;DHT22;31582;45.490;7.860;2022-09-09T17:19:03;28.00;51.10
45868;DHT22;31582;45.490;7.860;2022-09-09T17:21:30;28.00;51.60
45868;DHT22;31582;45.490;7.860;2022-09-09T17:23:58;27.80;51.80
45868;DHT22;31582;45.490;7.860;2022-09-09T17:26:26;27.70;52.50
45868;DHT22;31582;45.490;7.860;2022-09-09T17:28:53;27.50;53.50
45868;DHT22;31582;45.490;7.860;2022-09-09T17:31:25;27.40;54.60
45868;DHT22;31582;45.490;7.860;2022-09-09T17:33:52;27.20;55.60